createdAt,value
2023-01-13T00:00:59.886Z,10.20
2023-01-13T00:03:26.570Z,10.10
2023-01-13T00:05:53.280Z,10.10
2023-01-13T00:08:19.930Z,10.10
2023-01-13T00:10:47.297Z,10.10
2023-01-13T00:13:14.364Z,10.10
2023-01-13T00:15:41.052Z,10.20
2023-01-13T00:18:07.761Z,10.20
2023-01-13T00:20:34.490Z,10.10
2023-01-13T00:23:01.503Z,10.20
2023-01-13T00:25:28.179Z,10.10
2023-01-13T00:27:54.811Z,10.20
2023-01-13T00:30:21.450Z,10.10
2023-01-13T00:32:48.269Z,10.30
2023-01-13T00:35:14.971Z,10.10
2023-01-13T00:37:41.649Z,10.10
2023-01-13T00:40:08.805Z,10.10
2023-01-13T00:42:54.111Z,10.20
2023-01-13T00:45:20.796Z,10.20
2023-01-13T00:47:47.541Z,10.20
2023-01-13T00:50:14.211Z,10.30
2023-01-13T00:52:42.259Z,10.20
2023-01-13T00:55:09.208Z,10.20
2023-01-13T00:57:35.918Z,10.20
2023-01-13T01:00:02.978Z,10.20
2023-01-13T01:02:29.709Z,10.20
2023-01-13T01:04:56.384Z,10.20
2023-01-13T01:07:23.155Z,10.20
2023-01-13T01:09:49.816Z,10.20
2023-01-13T01:12:16.458Z,10.20
2023-01-13T01:14:43.183Z,10.20
2023-01-13T01:17:09.883Z,10.20
2023-01-13T01:19:39.253Z,10.20
2023-01-13T01:22:06.462Z,10.40
2023-01-13T01:24:33.325Z,10.30
2023-01-13T01:27:00.301Z,10.30
2023-01-13T01:29:27.140Z,10.30
2023-01-13T01:31:53.925Z,10.30
2023-01-13T01:34:20.555Z,10.30
2023-01-13T01:36:47.219Z,10.30
2023-01-13T01:39:13.844Z,10.30
2023-01-13T01:42:00.493Z,10.30
2023-01-13T01:44:42.499Z,10.30
2023-01-13T01:47:11.380Z,10.30
2023-01-13T01:49:38.936Z,10.30
2023-01-13T01:52:17.681Z,10.30
2023-01-13T01:54:48.209Z,10.30
2023-01-13T01:57:23.342Z,10.40
2023-01-13T01:59:50.094Z,10.30
2023-01-13T02:02:17.211Z,10.30
2023-01-13T02:04:50.848Z,10.40
2023-01-13T02:07:18.863Z,10.30
2023-01-13T02:09:45.507Z,10.40
2023-01-13T02:12:30.391Z,10.30
2023-01-13T02:14:59.116Z,10.30
2023-01-13T02:17:48.311Z,10.30
2023-01-13T02:20:34.082Z,10.30
2023-01-13T02:23:29.778Z,10.40
2023-01-13T02:25:59.608Z,10.40
2023-01-13T02:29:02.960Z,10.40
2023-01-13T02:31:42.604Z,10.40
2023-01-13T02:34:11.341Z,10.40
2023-01-13T02:36:42.895Z,10.40
2023-01-13T02:39:13.935Z,10.50
2023-01-13T02:42:03.250Z,10.50
2023-01-13T02:44:33.798Z,10.40
2023-01-13T02:47:20.727Z,10.50
2023-01-13T02:49:52.898Z,10.50
2023-01-13T02:52:23.764Z,10.50
2023-01-13T02:54:55.138Z,10.60
2023-01-13T02:57:23.139Z,10.50
2023-01-13T02:59:50.550Z,10.50
2023-01-13T03:02:20.021Z,10.40
2023-01-13T03:04:51.092Z,10.40
2023-01-13T03:07:26.937Z,10.40
2023-01-13T03:10:08.229Z,10.40
2023-01-13T03:12:41.248Z,10.40
2023-01-13T03:15:16.847Z,10.40
2023-01-13T03:17:55.636Z,10.40
2023-01-13T03:20:26.237Z,10.40
2023-01-13T03:23:05.209Z,10.40
2023-01-13T03:25:34.318Z,10.30
2023-01-13T03:28:06.142Z,10.40
2023-01-13T03:30:38.471Z,10.30
2023-01-13T03:33:06.933Z,10.20
2023-01-13T03:35:36.502Z,10.30
2023-01-13T03:38:05.478Z,10.20
2023-01-13T03:40:34.154Z,10.20
2023-01-13T03:43:22.158Z,10.30
2023-01-13T03:45:52.143Z,10.20
2023-01-13T03:48:20.265Z,10.20
2023-01-13T03:50:48.741Z,10.20
2023-01-13T03:53:18.582Z,10.30
2023-01-13T03:55:47.725Z,10.20
2023-01-13T03:58:17.019Z,10.10
2023-01-13T04:01:00.786Z,10.20
2023-01-13T04:03:33.245Z,10.10
2023-01-13T04:06:15.878Z,10.10
2023-01-13T04:08:48.531Z,10.10
2023-01-13T04:11:18.845Z,10.10
2023-01-13T04:13:46.683Z,10.10
2023-01-13T04:16:13.482Z,10.10
2023-01-13T04:18:40.274Z,10.00
2023-01-13T04:21:07.252Z,10.00
2023-01-13T04:23:33.909Z,10.10
2023-01-13T04:26:00.471Z,10.00
2023-01-13T04:28:26.968Z,10.10
2023-01-13T04:30:53.592Z,10.10
2023-01-13T04:33:20.226Z,10.10
2023-01-13T04:35:46.921Z,10.00
2023-01-13T04:38:14.680Z,10.00
2023-01-13T04:40:41.566Z,10.00
2023-01-13T04:43:08.100Z,10.00
2023-01-13T04:45:34.620Z,10.00
2023-01-13T04:48:01.458Z,10.10
2023-01-13T04:50:28.103Z,10.00
2023-01-13T04:52:54.910Z,10.00
2023-01-13T04:55:22.404Z,10.00
2023-01-13T04:57:48.939Z,10.00
2023-01-13T05:00:16.927Z,10.00
2023-01-13T05:02:43.529Z,10.00
2023-01-13T05:05:10.384Z,10.00
2023-01-13T05:07:37.033Z,10.00
2023-01-13T05:10:03.953Z,10.00
2023-01-13T05:12:49.058Z,10.00
2023-01-13T05:15:34.659Z,10.00
2023-01-13T05:18:01.633Z,10.00
2023-01-13T05:20:28.239Z,10.10
2023-01-13T05:23:13.706Z,10.00
2023-01-13T05:25:43.460Z,10.10
2023-01-13T05:28:10.899Z,10.00
2023-01-13T05:30:38.583Z,10.10
2023-01-13T05:33:05.156Z,10.10
2023-01-13T05:35:31.650Z,10.10
2023-01-13T05:37:58.203Z,10.10
2023-01-13T05:40:43.436Z,10.00
2023-01-13T05:43:20.452Z,10.00
2023-01-13T05:45:46.926Z,10.00
2023-01-13T05:48:13.728Z,10.00
2023-01-13T05:50:40.201Z,10.00
2023-01-13T05:53:06.758Z,10.10
2023-01-13T05:55:33.265Z,10.00
2023-01-13T05:58:00.191Z,10.10
2023-01-13T06:00:26.741Z,10.00
2023-01-13T06:02:53.289Z,10.00
2023-01-13T06:05:19.821Z,10.00
2023-01-13T06:07:46.413Z,10.00
2023-01-13T06:10:13.001Z,10.00
2023-01-13T06:12:39.578Z,10.00
2023-01-13T06:15:06.446Z,10.00
2023-01-13T06:17:32.951Z,10.00
2023-01-13T06:19:59.464Z,10.10
2023-01-13T06:22:32.371Z,10.00
2023-01-13T06:24:59.042Z,10.00
2023-01-13T06:27:25.991Z,10.00
2023-01-13T06:29:52.560Z,10.00
2023-01-13T06:32:21.082Z,10.00
2023-01-13T06:34:51.269Z,10.00
2023-01-13T06:37:21.436Z,10.10
2023-01-13T06:39:48.690Z,10.10
2023-01-13T06:42:33.860Z,10.00
2023-01-13T06:45:00.423Z,10.00
2023-01-13T06:47:26.989Z,9.90
2023-01-13T06:49:53.587Z,10.00
2023-01-13T06:52:20.156Z,9.90
2023-01-13T06:54:46.674Z,9.90
2023-01-13T06:57:13.680Z,9.90
2023-01-13T06:59:40.235Z,9.90
2023-01-13T07:02:06.930Z,9.90
2023-01-13T07:04:33.756Z,10.00
2023-01-13T07:07:00.314Z,10.00
2023-01-13T07:09:26.855Z,9.90
2023-01-13T07:11:53.381Z,9.90
2023-01-13T07:14:38.742Z,9.90
2023-01-13T07:17:05.291Z,9.90
2023-01-13T07:19:31.840Z,10.00
2023-01-13T07:21:58.360Z,9.90
2023-01-13T07:24:24.962Z,9.80
2023-01-13T07:26:52.333Z,9.80
2023-01-13T07:29:18.952Z,9.80
2023-01-13T07:31:46.082Z,9.80
2023-01-13T07:34:13.750Z,10.00
2023-01-13T07:36:40.287Z,9.80
2023-01-13T07:39:06.863Z,9.90
2023-01-13T07:41:52.266Z,9.90
2023-01-13T07:44:18.814Z,9.90
2023-01-13T07:46:45.436Z,9.90
2023-01-13T07:49:13.000Z,9.90
2023-01-13T07:51:39.807Z,9.90
2023-01-13T07:54:06.367Z,9.90
2023-01-13T07:56:32.988Z,9.90
2023-01-13T07:59:00.261Z,10.00
2023-01-13T08:01:28.004Z,9.90
2023-01-13T08:03:56.115Z,10.00
2023-01-13T08:06:22.727Z,10.00
2023-01-13T08:08:49.236Z,10.00
2023-01-13T08:11:15.811Z,10.00
2023-01-13T08:13:42.411Z,10.00
2023-01-13T08:16:10.715Z,10.20
2023-01-13T08:18:38.098Z,10.00
2023-01-13T08:21:06.055Z,10.10
2023-01-13T08:23:32.597Z,10.00
2023-01-13T08:25:59.858Z,10.00
2023-01-13T08:28:26.376Z,10.10
2023-01-13T08:30:54.177Z,10.10
2023-01-13T08:33:20.900Z,10.40
2023-01-13T08:35:48.990Z,10.10
2023-01-13T08:38:15.548Z,10.30
2023-01-13T08:40:42.148Z,10.20
2023-01-13T08:43:08.954Z,10.30
2023-01-13T08:45:36.111Z,10.30
2023-01-13T08:48:02.856Z,10.40
2023-01-13T08:50:29.471Z,10.50
2023-01-13T08:52:56.036Z,10.50
2023-01-13T08:55:22.613Z,10.60
2023-01-13T08:57:49.204Z,10.60
2023-01-13T09:00:17.149Z,10.60
2023-01-13T09:02:43.830Z,10.60
2023-01-13T09:05:10.721Z,10.60
2023-01-13T09:07:38.080Z,10.60
2023-01-13T09:10:06.085Z,10.60
2023-01-13T09:12:51.136Z,10.70
2023-01-13T09:15:18.506Z,10.70
2023-01-13T09:17:45.300Z,10.60
2023-01-13T09:20:12.528Z,10.60
2023-01-13T09:22:40.553Z,10.70
2023-01-13T09:25:07.495Z,10.80
2023-01-13T09:27:34.022Z,10.80
2023-01-13T09:30:00.640Z,10.80
2023-01-13T09:32:27.169Z,10.80
2023-01-13T09:35:02.884Z,10.80
2023-01-13T09:37:30.514Z,10.80
2023-01-13T09:39:57.361Z,10.70
2023-01-13T09:42:54.862Z,10.70
2023-01-13T09:45:43.011Z,10.70
2023-01-13T09:48:12.609Z,10.70
2023-01-13T09:50:58.556Z,10.60
2023-01-13T09:53:33.862Z,10.50
2023-01-13T09:56:00.559Z,10.40
2023-01-13T09:58:27.129Z,10.40
2023-01-13T10:00:59.978Z,10.20
2023-01-13T10:03:28.470Z,10.10
2023-01-13T10:06:06.701Z,10.10
2023-01-13T10:08:34.867Z,10.00
2023-01-13T10:11:40.416Z,10.00
2023-01-13T10:14:12.892Z,9.90
2023-01-13T10:16:44.381Z,9.90
2023-01-13T10:19:18.902Z,9.80
2023-01-13T10:22:02.037Z,9.80
2023-01-13T10:24:31.449Z,9.70
2023-01-13T10:27:00.781Z,9.70
2023-01-13T10:29:28.415Z,9.70
2023-01-13T10:31:55.650Z,9.60
2023-01-13T10:34:23.763Z,9.60
2023-01-13T10:37:02.054Z,9.60
2023-01-13T10:39:38.064Z,9.50
2023-01-13T10:42:05.853Z,9.50
2023-01-13T10:44:32.567Z,9.50
2023-01-13T10:46:59.321Z,9.50
2023-01-13T10:49:27.992Z,9.50
2023-01-13T10:51:54.540Z,9.50
2023-01-13T10:54:23.054Z,9.50
2023-01-13T10:56:49.867Z,9.60
2023-01-13T10:59:23.961Z,9.50
2023-01-13T11:02:26.248Z,9.50
2023-01-13T11:04:53.194Z,9.50
2023-01-13T11:07:38.129Z,9.60
2023-01-13T11:10:09.314Z,10.00
2023-01-13T11:12:52.410Z,9.90
2023-01-13T11:15:21.854Z,10.30
2023-01-13T11:18:00.336Z,10.60
2023-01-13T11:20:32.414Z,10.70
2023-01-13T11:23:01.107Z,10.70
2023-01-13T11:25:35.237Z,10.60
2023-01-13T11:28:04.306Z,10.70
2023-01-13T11:30:53.867Z,10.80
2023-01-13T11:33:27.180Z,10.80
2023-01-13T11:36:01.126Z,11.00
2023-01-13T11:38:31.675Z,11.10
2023-01-13T11:41:02.811Z,11.30
2023-01-13T11:43:32.154Z,11.60
2023-01-13T11:45:59.847Z,11.80
2023-01-13T11:48:28.820Z,11.80
2023-01-13T11:50:55.319Z,11.70
2023-01-13T11:53:42.721Z,11.60
2023-01-13T11:56:34.891Z,11.80
2023-01-13T11:59:19.724Z,12.00
2023-01-13T12:02:05.218Z,12.30
2023-01-13T12:04:54.827Z,12.50
2023-01-13T12:07:27.788Z,12.50
2023-01-13T12:10:03.727Z,12.50
2023-01-13T12:12:39.097Z,12.50
2023-01-13T12:15:14.817Z,12.40
2023-01-13T12:17:41.434Z,12.50
2023-01-13T12:20:17.364Z,12.50
2023-01-13T12:22:46.816Z,12.30
2023-01-13T12:25:17.960Z,12.30
2023-01-13T12:28:07.829Z,12.40
2023-01-13T12:30:43.099Z,12.10
2023-01-13T12:33:24.463Z,12.10
2023-01-13T12:35:58.795Z,12.00
2023-01-13T12:38:34.439Z,11.80
2023-01-13T12:41:24.548Z,11.80
2023-01-13T12:44:11.021Z,11.60
2023-01-13T12:46:45.591Z,11.60
2023-01-13T12:49:19.039Z,11.50
2023-01-13T12:51:51.360Z,11.30
2023-01-13T12:54:33.774Z,11.40
2023-01-13T12:57:00.431Z,11.40
2023-01-13T12:59:26.960Z,11.40
2023-01-13T13:02:08.821Z,11.30
2023-01-13T13:04:48.226Z,11.20
2023-01-13T13:07:35.044Z,11.10
2023-01-13T13:10:21.890Z,11.00
2023-01-13T13:13:14.953Z,10.90
2023-01-13T13:15:41.564Z,10.90
2023-01-13T13:18:17.298Z,10.90
2023-01-13T13:21:04.506Z,10.80
2023-01-13T13:23:43.465Z,10.70
2023-01-13T13:26:23.841Z,10.70
2023-01-13T13:29:05.515Z,10.60
2023-01-13T13:31:35.112Z,10.40
2023-01-13T13:34:08.170Z,10.40
2023-01-13T13:36:42.786Z,10.20
2023-01-13T13:39:34.881Z,10.20
2023-01-13T13:42:28.153Z,10.40
2023-01-13T13:45:13.858Z,10.40
2023-01-13T13:47:40.377Z,10.40
2023-01-13T13:50:14.639Z,10.30
2023-01-13T13:52:42.866Z,10.30
2023-01-13T13:55:15.126Z,10.10
2023-01-13T13:57:44.305Z,10.10
2023-01-13T14:00:23.093Z,10.00
2023-01-13T14:02:52.052Z,9.80
2023-01-13T14:05:20.527Z,9.80
2023-01-13T14:07:48.505Z,9.80
2023-01-13T14:10:20.907Z,9.80
2023-01-13T14:12:47.479Z,9.80
2023-01-13T14:15:25.853Z,10.00
2023-01-13T14:17:52.616Z,10.10
2023-01-13T14:20:19.500Z,10.10
2023-01-13T14:22:57.330Z,10.10
2023-01-13T14:25:34.679Z,10.00
2023-01-13T14:28:09.777Z,10.10
2023-01-13T14:30:36.364Z,10.10
2023-01-13T14:33:03.497Z,10.10
2023-01-13T14:35:30.076Z,10.10
2023-01-13T14:38:04.091Z,10.20
2023-01-13T14:40:33.468Z,10.20
2023-01-13T14:43:00.304Z,10.10
2023-01-13T14:45:26.957Z,10.10
2023-01-13T14:47:54.047Z,10.10
2023-01-13T14:50:23.376Z,10.10
2023-01-13T14:52:55.609Z,9.90
2023-01-13T14:55:40.223Z,9.80
2023-01-13T14:58:32.859Z,9.80
2023-01-13T15:01:18.214Z,9.60
2023-01-13T15:03:44.825Z,9.60
2023-01-13T15:06:21.733Z,9.50
2023-01-13T15:08:48.275Z,9.50
2023-01-13T15:11:20.168Z,9.40
2023-01-13T15:13:53.174Z,9.40
2023-01-13T15:16:25.137Z,9.40
2023-01-13T15:18:52.349Z,9.20
2023-01-13T15:21:19.101Z,9.20
2023-01-13T15:23:47.147Z,9.20
2023-01-13T15:26:13.723Z,9.30
2023-01-13T15:28:40.298Z,9.20
2023-01-13T15:31:06.871Z,9.20
2023-01-13T15:33:33.415Z,9.10
2023-01-13T15:36:01.677Z,9.10
2023-01-13T15:38:28.402Z,9.00
2023-01-13T15:40:54.932Z,8.90
2023-01-13T15:43:41.240Z,8.80
2023-01-13T15:46:31.998Z,8.80
2023-01-13T15:49:00.761Z,8.70
2023-01-13T15:51:27.263Z,8.70
2023-01-13T15:53:53.851Z,8.60
2023-01-13T15:56:23.200Z,8.50
2023-01-13T15:58:49.745Z,8.40
2023-01-13T16:01:16.463Z,8.40
2023-01-13T16:03:43.214Z,8.30
2023-01-13T16:06:16.024Z,8.30
2023-01-13T16:08:42.717Z,8.30
2023-01-13T16:11:09.798Z,8.30
2023-01-13T16:13:36.988Z,8.20
2023-01-13T16:16:04.053Z,8.10
2023-01-13T16:18:30.725Z,8.10
2023-01-13T16:20:57.222Z,8.10
2023-01-13T16:23:23.777Z,8.10
2023-01-13T16:25:50.497Z,8.00
2023-01-13T16:28:24.739Z,8.00
2023-01-13T16:30:51.481Z,8.00
2023-01-13T16:33:18.060Z,8.00
2023-01-13T16:36:10.042Z,8.00
2023-01-13T16:38:31.138Z,7.90
2023-01-13T16:40:57.670Z,7.90
2023-01-13T16:43:24.164Z,7.90
2023-01-13T16:45:50.730Z,7.90
2023-01-13T16:48:19.587Z,7.90
2023-01-13T16:50:46.226Z,7.90
2023-01-13T16:53:12.775Z,7.90
2023-01-13T16:55:40.082Z,7.90
2023-01-13T16:58:07.249Z,7.90
2023-01-13T17:00:33.749Z,7.90
2023-01-13T17:03:01.930Z,7.90
2023-01-13T17:05:28.741Z,7.90
2023-01-13T17:07:55.427Z,7.90
2023-01-13T17:10:23.273Z,7.90
2023-01-13T17:12:49.877Z,7.80
2023-01-13T17:15:17.373Z,7.80
2023-01-13T17:17:51.891Z,7.80
2023-01-13T17:20:19.027Z,7.80
2023-01-13T17:22:47.544Z,7.70
2023-01-13T17:25:16.341Z,7.80
2023-01-13T17:27:42.855Z,7.70
2023-01-13T17:30:10.728Z,7.60
2023-01-13T17:32:37.277Z,7.60
2023-01-13T17:35:04.069Z,7.60
2023-01-13T17:37:30.655Z,7.60
2023-01-13T17:39:57.175Z,7.50
2023-01-13T17:42:25.023Z,7.50
2023-01-13T17:44:51.583Z,7.50
2023-01-13T17:47:18.072Z,7.50
2023-01-13T17:49:44.572Z,7.50
2023-01-13T17:52:11.153Z,7.50
2023-01-13T17:54:37.749Z,7.50
2023-01-13T17:57:04.275Z,7.50
2023-01-13T17:59:30.856Z,7.50
2023-01-13T18:01:57.599Z,7.50
2023-01-13T18:04:27.130Z,7.50
2023-01-13T18:06:54.079Z,7.60
2023-01-13T18:09:20.580Z,7.60
2023-01-13T18:11:47.403Z,7.60
2023-01-13T18:14:14.107Z,7.60
2023-01-13T18:16:40.743Z,7.60
2023-01-13T18:19:26.031Z,7.60
2023-01-13T18:22:11.156Z,7.60
2023-01-13T18:24:56.380Z,7.60
2023-01-13T18:27:27.105Z,7.60
2023-01-13T18:29:54.647Z,7.70
2023-01-13T18:32:22.320Z,7.70
2023-01-13T18:34:49.082Z,7.70
2023-01-13T18:37:17.028Z,7.70
2023-01-13T18:39:43.824Z,7.70
2023-01-13T18:42:29.246Z,7.80
2023-01-13T18:44:57.002Z,7.80
2023-01-13T18:47:24.720Z,7.80
2023-01-13T18:49:51.263Z,7.80
2023-01-13T18:52:18.011Z,7.90
2023-01-13T18:54:44.560Z,7.70
2023-01-13T18:57:11.061Z,7.70
2023-01-13T18:59:37.689Z,7.70
2023-01-13T19:02:09.150Z,7.70
2023-01-13T19:04:35.994Z,7.70
2023-01-13T19:07:02.518Z,7.70
2023-01-13T19:09:29.472Z,7.70
2023-01-13T19:11:56.737Z,7.70
2023-01-13T19:14:37.656Z,7.70
2023-01-13T19:17:06.433Z,7.70
2023-01-13T19:19:32.963Z,7.70
2023-01-13T19:21:59.549Z,7.70
2023-01-13T19:24:26.065Z,7.70
2023-01-13T19:26:53.224Z,7.70
2023-01-13T19:29:19.867Z,7.70
2023-01-13T19:31:46.413Z,7.70
2023-01-13T19:34:13.028Z,7.80
2023-01-13T19:36:39.625Z,7.90
2023-01-13T19:39:06.140Z,7.80
2023-01-13T19:41:51.622Z,7.80
2023-01-13T19:44:36.808Z,7.80
2023-01-13T19:47:03.870Z,7.80
2023-01-13T19:49:30.360Z,7.90
2023-01-13T19:51:57.039Z,7.90
2023-01-13T19:54:23.756Z,7.90
2023-01-13T19:56:50.296Z,7.90
2023-01-13T19:59:22.028Z,7.90
2023-01-13T20:01:48.712Z,7.90
2023-01-13T20:04:17.804Z,7.90
2023-01-13T20:06:44.689Z,7.90
2023-01-13T20:09:12.019Z,8.00
2023-01-13T20:11:38.592Z,7.90
2023-01-13T20:14:05.195Z,8.00
2023-01-13T20:16:33.668Z,8.00
2023-01-13T20:19:00.255Z,8.00
2023-01-13T20:21:26.991Z,8.00
2023-01-13T20:23:53.954Z,8.00
2023-01-13T20:26:20.726Z,8.00
2023-01-13T20:28:47.248Z,8.00
2023-01-13T20:31:14.197Z,8.00
2023-01-13T20:33:41.070Z,7.90
2023-01-13T20:36:07.825Z,7.90
2023-01-13T20:38:37.785Z,7.90
2023-01-13T20:41:23.887Z,8.00
2023-01-13T20:43:50.683Z,8.00
2023-01-13T20:46:17.274Z,8.00
2023-01-13T20:48:43.925Z,8.00
2023-01-13T20:51:10.811Z,8.00
2023-01-13T20:53:37.320Z,7.90
2023-01-13T20:56:07.633Z,7.90
2023-01-13T20:58:34.335Z,7.90
2023-01-13T21:01:01.345Z,7.90
2023-01-13T21:03:27.956Z,7.90
2023-01-13T21:05:56.641Z,7.90
2023-01-13T21:08:23.170Z,7.90
2023-01-13T21:10:49.715Z,7.90
2023-01-13T21:13:35.113Z,7.90
2023-01-13T21:16:01.679Z,7.90
2023-01-13T21:18:46.910Z,7.90
2023-01-13T21:21:13.465Z,7.70
2023-01-13T21:23:43.771Z,8.00
2023-01-13T21:26:11.109Z,8.00
2023-01-13T21:28:37.742Z,7.90
2023-01-13T21:31:05.244Z,7.90
2023-01-13T21:33:32.199Z,7.90
2023-01-13T21:36:03.480Z,7.90
2023-01-13T21:38:30.406Z,7.90
2023-01-13T21:41:02.033Z,7.90
2023-01-13T21:43:47.318Z,7.90
2023-01-13T21:46:32.913Z,7.90
2023-01-13T21:48:59.620Z,7.90
2023-01-13T21:51:26.644Z,7.90
2023-01-13T21:53:53.458Z,8.00
2023-01-13T21:56:20.398Z,7.90
2023-01-13T21:58:46.973Z,7.90
2023-01-13T22:01:14.138Z,7.90
2023-01-13T22:03:59.566Z,7.80
2023-01-13T22:06:26.624Z,7.90
2023-01-13T22:08:55.381Z,7.80
2023-01-13T22:11:21.924Z,7.80
2023-01-13T22:14:07.224Z,7.80
2023-01-13T22:16:36.102Z,7.80
2023-01-13T22:19:03.168Z,7.80
2023-01-13T22:21:29.704Z,7.80
2023-01-13T22:23:56.289Z,7.90
2023-01-13T22:26:22.883Z,7.80
2023-01-13T22:28:49.380Z,7.80
2023-01-13T22:31:17.233Z,7.80
2023-01-13T22:33:46.853Z,7.70
2023-01-13T22:36:13.916Z,7.70
2023-01-13T22:38:40.547Z,7.70
2023-01-13T22:41:08.324Z,7.60
2023-01-13T22:43:35.332Z,7.60
2023-01-13T22:46:03.490Z,7.50
2023-01-13T22:48:30.019Z,7.50
2023-01-13T22:50:56.598Z,7.60
2023-01-13T22:53:23.090Z,7.40
2023-01-13T22:55:59.195Z,7.40
2023-01-13T22:58:26.006Z,7.30
2023-01-13T23:00:52.803Z,7.30
2023-01-13T23:03:19.382Z,7.30
2023-01-13T23:05:45.917Z,7.30
2023-01-13T23:08:12.691Z,7.30
2023-01-13T23:10:40.199Z,7.30
2023-01-13T23:13:06.929Z,7.30
2023-01-13T23:15:36.679Z,7.20
2023-01-13T23:18:03.259Z,7.30
2023-01-13T23:20:30.511Z,7.30
2023-01-13T23:22:59.795Z,7.30
2023-01-13T23:25:26.467Z,7.30
2023-01-13T23:27:53.078Z,7.30
2023-01-13T23:30:20.425Z,7.30
2023-01-13T23:32:47.030Z,7.30
2023-01-13T23:35:13.648Z,7.30
2023-01-13T23:37:40.220Z,7.30
2023-01-13T23:40:07.084Z,7.30
2023-01-13T23:42:33.718Z,7.30
2023-01-13T23:45:00.220Z,7.30
2023-01-13T23:47:27.629Z,7.30
2023-01-13T23:49:54.126Z,7.20
2023-01-13T23:52:20.636Z,7.20
2023-01-13T23:54:47.147Z,7.20
2023-01-13T23:57:13.784Z,7.20
2023-01-13T23:59:40.299Z,7.20
